Time;durP1;ratioP1;P1;durP2;ratioP2;P2;SDS_P1;SDS_P2;PMS_P1;PMS_P2;Temp;Humidity;BMP_temperature;BMP_pressure;BME280_temperature;BME280_humidity;BME280_pressure;Samples;Min_cycle;Max_cycle;Signal;HPM_P1;HPM_P2
2023/05/07 00:01:58;;;;;;;36.97;29.20;;;12.60;99.90;;;;;;4948727;28;20043;-77
2023/05/07 00:04:24;;;;;;;41.70;29.75;;;12.50;99.90;;;;;;4961835;28;20089;-77
2023/05/07 00:06:51;;;;;;;37.05;28.90;;;12.50;99.90;;;;;;4960896;28;20100;-78
2023/05/07 00:09:18;;;;;;;40.58;30.75;;;12.50;99.90;;;;;;4947801;28;20047;-77
2023/05/07 00:11:45;;;;;;;41.13;31.23;;;12.40;99.90;;;;;;4959534;28;20061;-77
2023/05/07 00:14:11;;;;;;;38.75;30.08;;;12.40;99.90;;;;;;4932474;28;20497;-78
2023/05/07 00:16:38;;;;;;;39.95;30.27;;;12.40;99.90;;;;;;4944716;28;20049;-77
2023/05/07 00:19:05;;;;;;;40.95;32.92;;;12.40;99.90;;;;;;4964202;28;20130;-77
2023/05/07 00:21:31;;;;;;;39.75;31.35;;;12.50;99.90;;;;;;4952406;28;20039;-76
2023/05/07 00:23:58;;;;;;;45.13;33.75;;;12.40;99.90;;;;;;4966650;28;20045;-77
2023/05/07 00:26:25;;;;;;;40.85;32.25;;;12.40;99.90;;;;;;4968404;28;20052;-77
2023/05/07 00:28:52;;;;;;;44.28;32.15;;;12.40;99.90;;;;;;4970312;28;20102;-76
2023/05/07 00:31:18;;;;;;;46.45;33.63;;;12.40;99.90;;;;;;4948377;28;20046;-77
2023/05/07 00:33:45;;;;;;;42.25;31.27;;;12.30;99.90;;;;;;4966562;28;20126;-77
2023/05/07 00:36:12;;;;;;;45.75;34.10;;;12.30;99.90;;;;;;4967212;28;20065;-77
2023/05/07 00:38:39;;;;;;;44.30;34.10;;;12.30;99.90;;;;;;4978079;28;20146;-76
2023/05/07 00:41:06;;;;;;;42.83;32.78;;;12.30;99.90;;;;;;4962197;28;20039;-75
2023/05/07 00:43:33;;;;;;;45.63;34.85;;;12.20;99.90;;;;;;4963189;28;20577;-75
2023/05/07 00:46:00;;;;;;;46.50;35.00;;;12.20;99.90;;;;;;4962522;28;20038;-77
2023/05/07 00:48:27;;;;;;;46.72;36.30;;;12.20;99.90;;;;;;4967239;28;20047;-75
2023/05/07 00:50:54;;;;;;;50.42;34.90;;;12.20;99.90;;;;;;4962608;28;20686;-77
2023/05/07 00:53:21;;;;;;;47.38;33.17;;;12.20;99.90;;;;;;4964879;28;20057;-77
2023/05/07 00:55:48;;;;;;;48.97;35.38;;;12.20;99.90;;;;;;4949488;28;20034;-76
2023/05/07 00:58:15;;;;;;;51.63;37.00;;;12.20;99.90;;;;;;4963439;28;20113;-77
2023/05/07 01:00:42;;;;;;;50.53;37.92;;;12.10;99.90;;;;;;4946541;28;20425;-76
2023/05/07 01:03:09;;;;;;;47.45;36.63;;;12.20;99.90;;;;;;4944493;28;20061;-76
2023/05/07 01:05:36;;;;;;;51.08;37.30;;;12.20;99.90;;;;;;4946195;28;20515;-76
2023/05/07 01:08:05;;;;;;;46.10;34.67;;;12.10;99.90;;;;;;4961541;28;20534;-75
2023/05/07 01:10:32;;;;;;;49.25;36.22;;;12.10;99.90;;;;;;4945200;28;20761;-76
2023/05/07 01:13:00;;;;;;;50.03;37.35;;;12.10;99.90;;;;;;4963044;28;20047;-76
2023/05/07 01:15:27;;;;;;;48.70;37.03;;;12.10;99.90;;;;;;4951775;28;20074;-77
2023/05/07 01:17:56;;;;;;;50.33;35.65;;;12.10;99.90;;;;;;4968182;28;20834;-76
2023/05/07 01:20:30;;;;;;;49.60;35.67;;;12.00;99.90;;;;;;4977726;28;25146;-77
2023/05/07 01:22:57;;;;;;;52.38;37.83;;;12.00;99.90;;;;;;4961863;28;20043;-77
2023/05/07 01:25:24;;;;;;;58.53;38.05;;;11.90;99.90;;;;;;4946010;28;20500;-76
2023/05/07 01:27:54;;;;;;;50.08;35.63;;;11.80;99.90;;;;;;4966407;28;20463;-76
2023/05/07 01:30:26;;;;;;;51.10;37.13;;;11.90;99.90;;;;;;4954994;28;20065;-76
2023/05/07 01:33:10;;;;;;;51.35;37.83;;;11.90;99.90;;;;;;4965425;28;20047;-77
2023/05/07 01:35:41;;;;;;;48.50;36.20;;;11.90;99.90;;;;;;4952590;28;20062;-76
2023/05/07 01:38:08;;;;;;;49.97;36.95;;;11.80;99.90;;;;;;4948528;28;20053;-75
2023/05/07 01:40:35;;;;;;;51.35;36.13;;;11.80;99.90;;;;;;4944553;28;20046;-76
2023/05/07 01:43:03;;;;;;;55.92;37.45;;;11.90;99.90;;;;;;4946975;28;20138;-76
2023/05/07 01:45:32;;;;;;;49.17;36.63;;;11.90;99.90;;;;;;4952479;28;20051;-76
2023/05/07 01:47:59;;;;;;;46.25;35.83;;;11.80;99.90;;;;;;4960293;28;20077;-76
2023/05/07 01:50:27;;;;;;;49.35;36.60;;;11.90;99.90;;;;;;4957061;28;20073;-76
2023/05/07 01:52:54;;;;;;;53.03;36.97;;;11.90;99.90;;;;;;4961190;28;20094;-76
2023/05/07 01:55:21;;;;;;;50.13;36.72;;;11.90;99.90;;;;;;4962219;28;20043;-77
2023/05/07 01:57:48;;;;;;;58.97;40.65;;;12.00;99.90;;;;;;4964257;28;20046;-75
2023/05/07 02:00:15;;;;;;;51.63;38.70;;;11.90;99.90;;;;;;4957231;28;20042;-77
2023/05/07 02:02:42;;;;;;;52.10;37.88;;;12.00;99.90;;;;;;4959451;28;20094;-75
2023/05/07 02:05:19;;;;;;;52.22;36.50;;;11.80;99.90;;;;;;4970376;28;20100;-76
2023/05/07 02:07:52;;;;;;;49.70;36.63;;;11.70;99.90;;;;;;4960489;28;20049;-77
2023/05/07 02:10:18;;;;;;;51.80;35.30;;;11.60;99.90;;;;;;4949669;28;20046;-77
2023/05/07 02:12:45;;;;;;;54.83;38.40;;;11.60;99.90;;;;;;4971290;28;20030;-76
2023/05/07 02:15:12;;;;;;;54.25;36.55;;;11.60;99.90;;;;;;4972070;28;20057;-76
2023/05/07 02:18:07;;;;;;;54.20;37.58;;;11.60;99.90;;;;;;4952079;28;20086;-77
2023/05/07 02:20:34;;;;;;;55.35;38.03;;;11.70;99.90;;;;;;4948904;28;20039;-76
2023/05/07 02:23:02;;;;;;;55.80;39.65;;;11.60;99.90;;;;;;4928636;28;20039;-77
2023/05/07 02:25:29;;;;;;;56.10;39.03;;;11.50;99.90;;;;;;4947862;28;20520;-75
2023/05/07 02:27:58;;;;;;;50.45;38.67;;;11.40;99.90;;;;;;4965335;28;20047;-76
2023/05/07 02:30:37;;;;;;;58.28;37.83;;;11.40;99.90;;;;;;4929505;28;20058;-77
2023/05/07 02:33:05;;;;;;;52.92;38.35;;;11.40;99.90;;;;;;4949133;28;20598;-76
2023/05/07 02:35:31;;;;;;;58.28;38.63;;;11.40;99.90;;;;;;4958055;28;20559;-75
2023/05/07 02:37:58;;;;;;;54.20;38.75;;;11.40;99.90;;;;;;4960341;28;20038;-76
2023/05/07 02:40:25;;;;;;;54.65;39.20;;;11.30;99.90;;;;;;4944892;28;20508;-76
2023/05/07 02:42:52;;;;;;;57.85;38.78;;;11.30;99.90;;;;;;4943547;28;20047;-76
2023/05/07 02:45:19;;;;;;;59.03;38.33;;;11.30;99.90;;;;;;4951481;28;20039;-76
2023/05/07 02:47:49;;;;;;;55.40;37.92;;;11.30;99.90;;;;;;4928974;28;20130;-76
2023/05/07 02:50:16;;;;;;;57.83;38.72;;;11.20;99.90;;;;;;4958895;28;20133;-75
2023/05/07 02:52:42;;;;;;;63.22;42.22;;;11.10;99.90;;;;;;4945903;28;20043;-76
2023/05/07 02:55:10;;;;;;;59.47;41.85;;;11.10;99.90;;;;;;4959675;28;20114;-79
2023/05/07 02:57:37;;;;;;;65.30;41.60;;;11.10;99.90;;;;;;4928404;28;20054;-75
2023/05/07 03:00:23;;;;;;;59.50;40.60;;;11.10;99.90;;;;;;4960010;28;20599;-77
2023/05/07 03:03:16;;;;;;;62.22;39.97;;;11.20;99.90;;;;;;4935884;28;20042;-76
2023/05/07 03:05:43;;;;;;;64.95;41.95;;;11.10;99.90;;;;;;4960139;28;20063;-76
2023/05/07 03:08:10;;;;;;;58.70;40.22;;;11.10;99.90;;;;;;4960114;28;20393;-76
2023/05/07 03:10:37;;;;;;;62.45;41.70;;;11.10;99.90;;;;;;4948386;28;20472;-77
2023/05/07 03:13:04;;;;;;;69.63;42.85;;;11.10;99.90;;;;;;4959206;28;20512;-76
2023/05/07 03:15:31;;;;;;;61.25;41.13;;;11.10;99.90;;;;;;4951864;28;20042;-76
2023/05/07 03:17:58;;;;;;;66.40;40.72;;;11.10;99.90;;;;;;4947187;28;20623;-75
2023/05/07 03:20:25;;;;;;;70.65;42.17;;;11.00;99.90;;;;;;4945236;28;20047;-77
2023/05/07 03:22:52;;;;;;;69.18;42.47;;;11.00;99.90;;;;;;4959358;28;20050;-76
2023/05/07 03:25:19;;;;;;;73.30;46.33;;;11.00;99.90;;;;;;4963318;28;20067;-76
2023/05/07 03:27:46;;;;;;;75.72;44.58;;;11.00;99.90;;;;;;4948682;28;20411;-76
2023/05/07 03:30:13;;;;;;;78.68;46.80;;;11.00;99.90;;;;;;4944481;28;20043;-76
2023/05/07 03:32:39;;;;;;;74.45;43.95;;;11.00;99.90;;;;;;4927998;28;20078;-77
2023/05/07 03:35:10;;;;;;;70.80;43.28;;;11.00;99.90;;;;;;4961552;28;20654;-76
2023/05/07 03:37:38;;;;;;;76.45;46.28;;;11.00;99.90;;;;;;4944635;28;20062;-77
2023/05/07 03:40:06;;;;;;;74.32;44.28;;;10.90;99.90;;;;;;4945136;28;20435;-75
2023/05/07 03:42:41;;;;;;;68.15;43.80;;;10.90;99.90;;;;;;4959879;28;20058;-76
2023/05/07 03:45:08;;;;;;;78.05;47.20;;;10.80;99.90;;;;;;4967234;28;20129;-77
2023/05/07 03:47:36;;;;;;;74.93;45.60;;;10.90;99.90;;;;;;4944523;28;20047;-77
2023/05/07 03:50:05;;;;;;;74.97;44.38;;;10.90;99.90;;;;;;4941910;28;20055;-75
2023/05/07 03:52:32;;;;;;;76.18;47.47;;;10.90;99.90;;;;;;4945588;28;20046;-75
2023/05/07 03:55:01;;;;;;;73.70;46.58;;;10.80;99.90;;;;;;4945738;28;20105;-75
2023/05/07 03:57:29;;;;;;;82.38;46.60;;;10.80;99.90;;;;;;4960024;28;20142;-75
2023/05/07 03:59:58;;;;;;;79.88;46.60;;;10.90;99.90;;;;;;4941814;28;20134;-77
2023/05/07 04:02:25;;;;;;;71.75;44.17;;;10.90;99.90;;;;;;4939239;28;20464;-75
2023/05/07 04:04:52;;;;;;;83.38;46.50;;;10.90;99.90;;;;;;4946978;28;20073;-76
2023/05/07 04:07:19;;;;;;;77.10;44.95;;;11.00;99.90;;;;;;4960864;28;20053;-77
2023/05/07 04:09:49;;;;;;;74.75;42.38;;;10.80;99.90;;;;;;4974499;28;20070;-76
2023/05/07 04:12:16;;;;;;;70.60;44.20;;;10.80;99.90;;;;;;4958896;28;20047;-76
2023/05/07 04:14:42;;;;;;;72.60;44.75;;;10.80;99.90;;;;;;4947375;28;20051;-76
2023/05/07 04:17:10;;;;;;;80.57;47.53;;;10.80;99.90;;;;;;4942085;28;20047;-76
2023/05/07 04:19:37;;;;;;;73.75;47.20;;;10.80;99.90;;;;;;4958582;28;20145;-76
2023/05/07 04:22:04;;;;;;;70.85;43.05;;;10.90;99.90;;;;;;4959053;28;20039;-77
2023/05/07 04:24:35;;;;;;;72.45;45.72;;;10.80;99.90;;;;;;4958530;28;20047;-75
2023/05/07 04:27:03;;;;;;;71.70;43.55;;;10.80;99.90;;;;;;4962553;28;20043;-75
2023/05/07 04:29:30;;;;;;;70.90;44.35;;;10.80;99.90;;;;;;4944065;28;20101;-76
2023/05/07 04:31:58;;;;;;;74.10;46.40;;;10.90;99.90;;;;;;4964801;28;20043;-75
2023/05/07 04:34:26;;;;;;;67.85;43.70;;;10.80;99.90;;;;;;4945890;28;20059;-76
2023/05/07 04:36:53;;;;;;;70.00;44.58;;;10.90;99.90;;;;;;4935457;28;20538;-75
2023/05/07 04:39:20;;;;;;;75.75;44.60;;;10.90;99.90;;;;;;4940816;28;20067;-75
2023/05/07 04:41:47;;;;;;;68.30;43.05;;;10.80;99.90;;;;;;4940585;28;20054;-76
2023/05/07 04:44:14;;;;;;;65.57;44.20;;;10.80;99.90;;;;;;4942423;28;20058;-75
2023/05/07 04:46:42;;;;;;;69.25;43.60;;;10.80;99.90;;;;;;4957724;28;20049;-76
2023/05/07 04:49:10;;;;;;;69.13;42.60;;;10.70;99.90;;;;;;4925721;28;20097;-75
2023/05/07 04:51:38;;;;;;;70.65;44.05;;;10.70;99.90;;;;;;4942082;28;20077;-77
2023/05/07 04:54:04;;;;;;;70.40;42.08;;;10.70;99.90;;;;;;4956711;28;20142;-76
2023/05/07 04:56:31;;;;;;;63.30;42.28;;;10.90;99.90;;;;;;4958752;28;20039;-76
2023/05/07 04:58:59;;;;;;;63.63;41.75;;;10.90;99.90;;;;;;4944895;28;20134;-76
2023/05/07 05:01:27;;;;;;;73.25;45.10;;;10.80;99.90;;;;;;4958173;28;20054;-76
2023/05/07 05:03:54;;;;;;;63.42;39.20;;;10.90;99.90;;;;;;4957038;28;20057;-75
2023/05/07 05:06:21;;;;;;;66.63;41.28;;;10.80;99.90;;;;;;4943702;28;20039;-77
2023/05/07 05:08:49;;;;;;;70.43;40.85;;;10.90;99.90;;;;;;4934670;28;20047;-76
2023/05/07 05:11:16;;;;;;;62.40;41.92;;;10.80;99.90;;;;;;4960215;28;20587;-76
2023/05/07 05:13:42;;;;;;;67.68;39.75;;;10.90;99.90;;;;;;4945126;28;20094;-77
2023/05/07 05:16:15;;;;;;;59.10;40.13;;;10.70;99.90;;;;;;4929526;28;20110;-76
2023/05/07 05:18:42;;;;;;;62.38;40.00;;;10.70;99.90;;;;;;4946401;28;20051;-76
2023/05/07 05:21:11;;;;;;;64.18;38.75;;;10.70;99.90;;;;;;4959975;28;20053;-75
2023/05/07 05:23:39;;;;;;;64.90;40.03;;;10.70;99.90;;;;;;4941625;28;20055;-76
2023/05/07 05:26:06;;;;;;;64.22;39.08;;;10.70;99.90;;;;;;4952927;28;20074;-75
2023/05/07 05:28:33;;;;;;;66.28;40.92;;;10.70;99.90;;;;;;4958765;28;20138;-75
2023/05/07 05:31:01;;;;;;;62.83;40.85;;;10.70;99.90;;;;;;4959500;28;20053;-76
2023/05/07 05:33:32;;;;;;;66.15;41.08;;;10.80;99.90;;;;;;4960696;28;20050;-75
2023/05/07 05:36:03;;;;;;;60.33;39.17;;;10.90;99.90;;;;;;4944665;28;20050;-76
2023/05/07 05:38:30;;;;;;;56.05;37.03;;;10.80;99.90;;;;;;4950925;28;20059;-77
2023/05/07 05:40:57;;;;;;;61.20;38.58;;;10.80;99.90;;;;;;4932208;28;20042;-77
2023/05/07 05:43:23;;;;;;;53.00;33.65;;;10.70;99.90;;;;;;4962324;28;20035;-76
2023/05/07 05:45:50;;;;;;;58.08;36.28;;;10.70;99.90;;;;;;4945227;28;20038;-77
2023/05/07 05:48:17;;;;;;;55.70;37.60;;;10.60;99.90;;;;;;4963275;28;20679;-76
2023/05/07 05:50:44;;;;;;;62.70;38.42;;;10.70;99.90;;;;;;4944354;28;20049;-75
2023/05/07 05:53:11;;;;;;;52.85;35.00;;;10.70;99.90;;;;;;4960282;28;20101;-75
2023/05/07 05:55:39;;;;;;;59.17;37.22;;;10.70;99.90;;;;;;4930498;28;20046;-75
2023/05/07 05:58:05;;;;;;;56.03;36.58;;;10.70;99.90;;;;;;4960820;28;20105;-76
2023/05/07 06:00:36;;;;;;;49.20;31.85;;;10.70;99.90;;;;;;4960804;28;20126;-75
2023/05/07 06:03:04;;;;;;;54.55;34.45;;;10.60;99.90;;;;;;4973094;28;20053;-77
2023/05/07 06:05:31;;;;;;;51.43;33.57;;;10.50;99.90;;;;;;4964435;28;20436;-75
2023/05/07 06:07:58;;;;;;;52.13;35.75;;;10.50;99.90;;;;;;4971705;28;20047;-75
2023/05/07 06:10:30;;;;;;;57.70;34.90;;;10.60;99.90;;;;;;4964929;28;20066;-76
2023/05/07 06:12:57;;;;;;;51.90;35.58;;;10.70;99.90;;;;;;4961419;28;20405;-76
2023/05/07 06:15:24;;;;;;;51.90;36.97;;;10.70;99.90;;;;;;4948274;28;20053;-75
2023/05/07 06:17:51;;;;;;;51.30;32.97;;;10.80;99.90;;;;;;4943399;28;20054;-75
2023/05/07 06:20:18;;;;;;;52.15;35.05;;;10.70;99.90;;;;;;4943142;28;20038;-74
2023/05/07 06:22:45;;;;;;;46.95;32.30;;;10.80;99.90;;;;;;4960483;28;20046;-76
2023/05/07 06:25:13;;;;;;;47.60;33.05;;;10.90;99.90;;;;;;4945341;28;20058;-75
2023/05/07 06:27:41;;;;;;;45.25;30.95;;;10.90;99.90;;;;;;4959135;28;20054;-76
2023/05/07 06:30:08;;;;;;;47.25;34.22;;;10.90;99.90;;;;;;4943847;28;20035;-73
2023/05/07 06:32:36;;;;;;;42.38;32.30;;;10.90;99.90;;;;;;4962174;28;20500;-77
2023/05/07 06:35:03;;;;;;;48.00;32.92;;;10.90;99.90;;;;;;4959822;28;20031;-76
2023/05/07 06:37:30;;;;;;;41.80;32.33;;;11.00;99.90;;;;;;4966177;28;20046;-75
2023/05/07 06:40:04;;;;;;;42.42;31.50;;;11.10;99.90;;;;;;4959529;28;20097;-75
2023/05/07 06:42:33;;;;;;;45.85;31.35;;;11.20;99.90;;;;;;4951867;28;20051;-76
2023/05/07 06:45:17;;;;;;;44.08;32.42;;;11.20;99.90;;;;;;4943181;28;20078;-75
2023/05/07 06:47:43;;;;;;;38.33;31.27;;;11.40;99.90;;;;;;4944307;28;20078;-76
2023/05/07 06:50:10;;;;;;;39.78;31.10;;;11.30;99.90;;;;;;4942823;28;20098;-75
2023/05/07 06:52:38;;;;;;;42.63;31.58;;;11.40;99.90;;;;;;4960567;28;20101;-75
2023/05/07 06:55:06;;;;;;;40.25;32.22;;;11.30;99.90;;;;;;4974480;28;20041;-76
2023/05/07 06:57:33;;;;;;;37.00;29.27;;;11.20;99.90;;;;;;4962403;28;20050;-74
2023/05/07 06:59:59;;;;;;;35.22;29.10;;;11.10;99.90;;;;;;4958484;28;20042;-76
2023/05/07 07:02:26;;;;;;;42.15;31.35;;;11.10;99.90;;;;;;4960394;28;20055;-74
2023/05/07 07:04:53;;;;;;;38.20;30.65;;;11.20;99.90;;;;;;4966503;28;20698;-76
2023/05/07 07:07:20;;;;;;;36.95;28.67;;;11.20;99.90;;;;;;4943959;28;20500;-77
2023/05/07 07:09:49;;;;;;;35.40;29.20;;;11.20;99.90;;;;;;4941759;28;20047;-75
2023/05/07 07:12:18;;;;;;;35.72;30.30;;;11.30;99.90;;;;;;4943339;28;20409;-76
2023/05/07 07:14:44;;;;;;;36.28;29.27;;;11.30;99.90;;;;;;4964820;28;20050;-75
2023/05/07 07:17:12;;;;;;;36.15;27.88;;;11.30;99.90;;;;;;4959157;28;20050;-75
2023/05/07 07:19:39;;;;;;;34.22;28.02;;;11.30;99.90;;;;;;4960677;28;20150;-75
2023/05/07 07:22:06;;;;;;;37.55;29.95;;;11.30;99.90;;;;;;4956658;28;20684;-76
2023/05/07 07:24:33;;;;;;;35.97;31.27;;;11.30;99.90;;;;;;4960779;28;20540;-75
2023/05/07 07:27:03;;;;;;;34.97;29.77;;;11.40;99.90;;;;;;4958564;28;20563;-76
2023/05/07 07:29:32;;;;;;;34.28;29.13;;;11.40;99.90;;;;;;4960347;28;20113;-75
2023/05/07 07:31:59;;;;;;;35.53;28.90;;;11.40;99.90;;;;;;4940394;28;20083;-75
2023/05/07 07:34:26;;;;;;;35.47;29.50;;;11.40;99.90;;;;;;4959963;28;20059;-76
2023/05/07 07:36:53;;;;;;;33.83;30.15;;;11.40;99.90;;;;;;4975692;28;20054;-76
2023/05/07 07:39:20;;;;;;;36.25;29.33;;;11.40;99.90;;;;;;4943844;28;20058;-77
2023/05/07 07:41:49;;;;;;;35.10;28.02;;;11.60;99.90;;;;;;4947888;28;20047;-76
2023/05/07 07:44:18;;;;;;;33.90;30.20;;;11.70;99.90;;;;;;4947942;28;20462;-74
2023/05/07 07:46:50;;;;;;;33.45;29.92;;;11.80;99.90;;;;;;4959826;28;20174;-76
2023/05/07 07:49:17;;;;;;;34.83;30.67;;;11.90;99.90;;;;;;4959009;28;20042;-76
2023/05/07 07:51:44;;;;;;;31.42;28.20;;;12.00;99.90;;;;;;4955259;28;20048;-75
2023/05/07 07:54:12;;;;;;;31.75;28.25;;;12.00;99.90;;;;;;4957857;28;20089;-76
2023/05/07 07:56:39;;;;;;;33.55;30.00;;;12.00;99.90;;;;;;4955436;28;20149;-74
2023/05/07 07:59:07;;;;;;;32.63;29.08;;;12.00;99.90;;;;;;4958357;28;20049;-76
2023/05/07 08:01:37;;;;;;;33.10;29.30;;;12.00;99.90;;;;;;4960755;28;20193;-75
2023/05/07 08:04:05;;;;;;;32.97;29.35;;;12.20;99.90;;;;;;4938792;28;20616;-76
2023/05/07 08:06:36;;;;;;;33.90;30.35;;;12.20;99.90;;;;;;4941880;28;20054;-75
2023/05/07 08:09:03;;;;;;;36.28;30.10;;;12.20;99.90;;;;;;4942358;28;20145;-76
2023/05/07 08:11:30;;;;;;;37.15;32.45;;;12.30;99.90;;;;;;4943455;28;20133;-77
2023/05/07 08:13:58;;;;;;;34.65;30.92;;;12.30;99.90;;;;;;4945428;28;20050;-76
2023/05/07 08:16:25;;;;;;;36.10;32.25;;;12.50;99.90;;;;;;4964041;28;20046;-76
2023/05/07 08:18:52;;;;;;;36.22;32.42;;;12.40;99.90;;;;;;4965857;28;20078;-76
2023/05/07 08:21:20;;;;;;;35.95;32.28;;;12.30;99.90;;;;;;4944399;28;20264;-75
2023/05/07 08:23:46;;;;;;;35.25;31.13;;;12.30;99.90;;;;;;4944112;28;20181;-77
2023/05/07 08:26:13;;;;;;;36.30;32.70;;;12.50;99.90;;;;;;4958958;28;20050;-75
2023/05/07 08:28:40;;;;;;;34.20;30.58;;;12.50;99.90;;;;;;4944970;28;20109;-76
2023/05/07 08:31:07;;;;;;;37.17;33.20;;;12.60;99.90;;;;;;4941797;28;20062;-77
2023/05/07 08:33:38;;;;;;;35.20;31.48;;;12.70;99.90;;;;;;4961355;28;20050;-77
2023/05/07 08:36:05;;;;;;;36.15;32.33;;;12.80;99.90;;;;;;4958089;28;20042;-76
2023/05/07 08:38:32;;;;;;;37.17;32.90;;;12.70;99.90;;;;;;4961118;28;20698;-77
2023/05/07 08:41:00;;;;;;;37.65;33.78;;;12.80;99.90;;;;;;4958382;28;20656;-76
2023/05/07 08:43:31;;;;;;;36.42;32.67;;;12.90;99.90;;;;;;4943519;28;20057;-76
2023/05/07 08:46:02;;;;;;;36.72;33.00;;;12.90;99.90;;;;;;4965244;28;20047;-75
2023/05/07 08:48:32;;;;;;;35.67;31.98;;;12.70;99.90;;;;;;4961897;28;20047;-75
2023/05/07 08:51:06;;;;;;;35.93;32.23;;;13.00;99.90;;;;;;4964689;28;20553;-77
2023/05/07 08:53:35;;;;;;;35.50;31.83;;;12.90;99.90;;;;;;4960879;28;20070;-75
2023/05/07 08:56:02;;;;;;;35.17;31.60;;;12.80;99.90;;;;;;4977146;28;20063;-76
2023/05/07 08:58:29;;;;;;;36.25;32.45;;;12.80;99.90;;;;;;4958218;28;20054;-75
2023/05/07 09:00:57;;;;;;;36.70;32.78;;;12.80;99.90;;;;;;4956569;28;20436;-76
2023/05/07 09:03:24;;;;;;;38.40;34.55;;;12.90;99.90;;;;;;4969199;28;20054;-76
2023/05/07 09:05:53;;;;;;;36.90;33.00;;;13.00;99.90;;;;;;4928794;28;20601;-76
2023/05/07 09:08:25;;;;;;;35.72;32.33;;;13.20;99.90;;;;;;4961500;28;20572;-76
2023/05/07 09:10:54;;;;;;;36.00;32.03;;;13.20;99.90;;;;;;4939289;28;20039;-76
2023/05/07 09:13:22;;;;;;;39.00;35.25;;;13.10;99.90;;;;;;4964036;28;20042;-76
2023/05/07 09:15:49;;;;;;;35.42;31.63;;;13.00;99.90;;;;;;4944686;28;20039;-76
2023/05/07 09:18:16;;;;;;;36.83;33.22;;;13.00;99.90;;;;;;4961490;28;20652;-76
2023/05/07 09:20:45;;;;;;;36.60;32.75;;;12.90;99.90;;;;;;4962568;28;20101;-77
2023/05/07 09:23:13;;;;;;;36.78;33.38;;;13.10;99.90;;;;;;4945434;28;20051;-76
2023/05/07 09:25:42;;;;;;;38.13;34.35;;;13.30;99.90;;;;;;4947137;28;20049;-76
2023/05/07 09:28:15;;;;;;;38.30;34.83;;;13.50;99.90;;;;;;4960986;28;20043;-76
2023/05/07 09:30:42;;;;;;;36.17;33.17;;;13.60;99.90;;;;;;4961022;28;20043;-76
2023/05/07 09:33:11;;;;;;;36.53;33.30;;;13.60;99.90;;;;;;4959376;28;20045;-76
2023/05/07 09:35:41;;;;;;;38.10;34.60;;;13.70;99.90;;;;;;4961572;28;20043;-78
2023/05/07 09:38:14;;;;;;;37.95;34.40;;;13.70;99.90;;;;;;4944095;28;20039;-76
2023/05/07 09:40:42;;;;;;;36.30;32.90;;;13.50;99.90;;;;;;4960583;28;20051;-77
2023/05/07 09:43:13;;;;;;;36.47;33.17;;;13.40;99.90;;;;;;4943199;28;20133;-76
2023/05/07 09:45:55;;;;;;;36.78;33.22;;;13.40;99.90;;;;;;4945038;28;20050;-77
2023/05/07 09:48:26;;;;;;;36.90;33.38;;;13.30;99.90;;;;;;4963675;28;20050;-77
2023/05/07 09:50:59;;;;;;;37.08;33.70;;;13.40;99.90;;;;;;4960019;28;20036;-76
2023/05/07 09:53:31;;;;;;;36.08;32.95;;;13.50;99.90;;;;;;4946629;28;20054;-76
2023/05/07 09:56:00;;;;;;;35.78;32.50;;;13.80;99.90;;;;;;4945649;28;20048;-77
2023/05/07 09:58:32;;;;;;;36.78;33.70;;;13.70;99.90;;;;;;4946272;28;20046;-76
2023/05/07 10:01:00;;;;;;;37.90;34.60;;;14.10;99.90;;;;;;4959682;28;20049;-75
2023/05/07 10:03:29;;;;;;;38.05;34.72;;;14.10;99.90;;;;;;4946647;28;20046;-75
2023/05/07 10:06:03;;;;;;;38.13;34.60;;;14.30;99.90;;;;;;4947747;28;20057;-75
2023/05/07 10:08:30;;;;;;;35.88;32.78;;;14.10;99.90;;;;;;4951744;28;20046;-76
2023/05/07 10:11:00;;;;;;;33.58;30.85;;;14.20;99.90;;;;;;4964560;28;20038;-76
2023/05/07 10:13:29;;;;;;;36.60;33.60;;;14.00;99.90;;;;;;4957114;28;20492;-75
2023/05/07 10:15:58;;;;;;;35.55;32.60;;;14.40;99.90;;;;;;4964292;28;20043;-74
2023/05/07 10:18:32;;;;;;;37.58;34.45;;;14.80;99.90;;;;;;4950006;28;20039;-76
2023/05/07 10:21:15;;;;;;;37.35;34.10;;;14.60;99.90;;;;;;4957019;28;20038;-76
2023/05/07 10:23:47;;;;;;;37.15;34.15;;;14.80;99.90;;;;;;4963791;28;20050;-76
2023/05/07 10:26:16;;;;;;;36.55;33.53;;;14.60;99.90;;;;;;4952261;28;20050;-76
2023/05/07 10:28:48;;;;;;;37.17;34.10;;;14.50;99.90;;;;;;4949628;28;20073;-75
2023/05/07 10:31:45;;;;;;;35.92;33.10;;;14.80;99.90;;;;;;4963148;28;20570;-76
2023/05/07 10:34:16;;;;;;;33.72;31.13;;;14.60;99.90;;;;;;4942953;28;20106;-75
2023/05/07 10:36:44;;;;;;;34.63;31.45;;;14.90;99.90;;;;;;4964854;28;20131;-76
2023/05/07 10:39:12;;;;;;;34.60;31.70;;;14.70;99.90;;;;;;4944346;28;20057;-76
2023/05/07 10:41:40;;;;;;;33.65;30.92;;;14.50;99.90;;;;;;4963813;28;20196;-76
2023/05/07 10:44:07;;;;;;;34.75;31.88;;;14.10;99.90;;;;;;4969131;28;20039;-76
2023/05/07 10:46:35;;;;;;;34.15;31.25;;;14.10;99.90;;;;;;4958664;28;20094;-75
2023/05/07 10:49:16;;;;;;;33.13;30.52;;;14.20;99.90;;;;;;4947658;28;20416;-75
2023/05/07 10:52:17;;;;;;;35.28;32.47;;;14.70;99.90;;;;;;4948547;28;20031;-76
2023/05/07 10:55:21;;;;;;;32.72;30.02;;;14.80;99.90;;;;;;4969827;28;20516;-75
2023/05/07 10:58:21;;;;;;;33.60;31.00;;;14.70;99.90;;;;;;4964820;28;20039;-76
2023/05/07 11:01:49;;;;;;;34.42;31.40;;;14.90;99.90;;;;;;4961061;28;20078;-76
2023/05/07 11:04:24;;;;;;;32.63;30.17;;;14.80;99.90;;;;;;4932197;28;20632;-76
2023/05/07 11:07:06;;;;;;;30.80;28.30;;;14.90;99.90;;;;;;4962840;28;20665;-76
2023/05/07 11:09:51;;;;;;;31.40;29.13;;;14.70;99.90;;;;;;4933637;28;20093;-76
2023/05/07 11:12:37;;;;;;;31.92;29.52;;;14.40;99.90;;;;;;4962448;28;20666;-76
2023/05/07 11:15:11;;;;;;;30.92;28.75;;;14.50;99.90;;;;;;4952998;28;20078;-75
2023/05/07 11:17:58;;;;;;;30.02;27.98;;;14.70;99.90;;;;;;4948908;28;20604;-76
2023/05/07 11:20:54;;;;;;;31.77;29.13;;;14.60;99.90;;;;;;4945836;28;20121;-75
2023/05/07 11:23:34;;;;;;;32.33;29.55;;;14.50;99.90;;;;;;4936577;28;20074;-76
2023/05/07 11:26:11;;;;;;;31.38;29.02;;;14.50;99.90;;;;;;4968649;28;20039;-76
2023/05/07 11:28:41;;;;;;;31.88;29.77;;;14.80;99.90;;;;;;4948089;28;20623;-76
2023/05/07 11:31:10;;;;;;;33.35;31.05;;;14.90;99.90;;;;;;4932119;28;20051;-76
2023/05/07 11:33:38;;;;;;;33.47;31.17;;;15.10;99.90;;;;;;4958935;28;20693;-75
2023/05/07 11:36:09;;;;;;;35.22;32.58;;;15.50;99.90;;;;;;4948514;28;20058;-76
2023/05/07 11:38:42;;;;;;;32.60;30.25;;;15.30;99.90;;;;;;4955283;28;20046;-75
2023/05/07 11:41:08;;;;;;;32.35;30.05;;;15.00;99.90;;;;;;4963381;28;20043;-75
2023/05/07 11:43:35;;;;;;;31.27;29.17;;;15.50;99.90;;;;;;4946996;28;20635;-76
2023/05/07 11:46:11;;;;;;;31.63;29.33;;;15.60;99.90;;;;;;4964410;28;20129;-75
2023/05/07 11:48:39;;;;;;;30.13;28.23;;;15.10;99.90;;;;;;4959801;28;20041;-76
2023/05/07 11:51:08;;;;;;;31.25;29.05;;;15.20;99.90;;;;;;4962043;28;20602;-75
2023/05/07 11:53:37;;;;;;;30.95;28.75;;;15.60;99.90;;;;;;4949016;28;20043;-76
2023/05/07 11:56:15;;;;;;;31.77;29.25;;;15.40;99.90;;;;;;4964626;28;20041;-75
2023/05/07 11:58:43;;;;;;;31.92;29.55;;;15.40;99.90;;;;;;4959829;28;20136;-76
2023/05/07 12:01:11;;;;;;;30.00;27.98;;;15.40;99.90;;;;;;4963498;28;20138;-76
2023/05/07 12:03:43;;;;;;;33.10;30.70;;;15.40;99.90;;;;;;4958811;28;20070;-76
2023/05/07 12:06:11;;;;;;;31.38;29.17;;;15.70;99.90;;;;;;4929519;28;20045;-75
2023/05/07 12:08:40;;;;;;;32.40;30.20;;;15.90;99.90;;;;;;4959347;28;20074;-76
2023/05/07 12:11:14;;;;;;;36.10;33.67;;;16.10;99.90;;;;;;4964786;28;20150;-75
2023/05/07 12:13:41;;;;;;;34.25;31.95;;;16.00;99.90;;;;;;4942862;28;20882;-74
2023/05/07 12:16:09;;;;;;;33.20;30.83;;;15.80;99.90;;;;;;4948135;28;20039;-75
2023/05/07 12:18:36;;;;;;;32.42;30.27;;;16.30;99.90;;;;;;4956734;28;20106;-76
2023/05/07 12:21:05;;;;;;;33.08;30.65;;;16.30;99.90;;;;;;4952646;28;20074;-76
2023/05/07 12:23:32;;;;;;;33.28;30.98;;;16.20;99.90;;;;;;4966182;28;20055;-75
2023/05/07 12:25:59;;;;;;;33.15;30.80;;;15.70;99.90;;;;;;4967456;28;20126;-74
2023/05/07 12:28:30;;;;;;;33.30;31.00;;;15.50;99.90;;;;;;4974451;28;20047;-77
2023/05/07 12:30:57;;;;;;;32.53;30.27;;;15.50;99.90;;;;;;4967490;28;20043;-75
2023/05/07 12:33:26;;;;;;;32.45;30.23;;;15.50;99.90;;;;;;4952328;28;20035;-75
2023/05/07 12:35:55;;;;;;;34.20;31.73;;;15.50;99.90;;;;;;4970489;28;20066;-73
2023/05/07 12:38:22;;;;;;;32.58;30.33;;;15.60;99.90;;;;;;4966696;28;20165;-76
2023/05/07 12:40:55;;;;;;;33.03;30.77;;;15.40;99.90;;;;;;4970505;28;20078;-76